KMML/MML METAR and TAF weather

Enter ICAO airport designator
Station Type Date Time Source
KMML METAR 2019/08/26 06:56 UTC NOAA

KMML 260656Z AUTO 17009KT 10SM OVC009 19/17 A2979 RMK AO2 SLP086 T01890172


Station Type Date Time Source
KMML Decoded METAR 2019/08/26 06:56 UTC NOAA

Station name not available
Aug 26, 2019 - 02:56 AM EDT / 2019.08.26 0656 UTC
Wind: from the S (170 degrees) at 10 MPH (9 KT):0
Visibility: 10 mile(s):0
Sky conditions: overcast
Temperature: 66.0 F (18.9 C)
Dew Point: 63.0 F (17.2 C)
Relative Humidity: 89%
Pressure (altimeter): 29.79 in. Hg (1008 hPa)
ob: KMML 260656Z AUTO 17009KT 10SM OVC009 19/17 A2979 RMK AO2 SLP086 T01890172
cycle: 7

Station Type Date Time Source
KMML TAF UTC NOAA

Error!

Example: see airport list